sensor_id;sensor_type;location;lat;lon;timestamp;P1;durP1;ratioP1;P2;durP2;ratioP2
24743;SDS011;12844;52.110;5.548;2022-12-17T00:01:44;8.20;;;6.20;;
24743;SDS011;12844;52.110;5.548;2022-12-17T00:04:28;8.77;;;6.40;;
24743;SDS011;12844;52.110;5.548;2022-12-17T00:07:12;8.27;;;6.47;;
24743;SDS011;12844;52.110;5.548;2022-12-17T00:09:56;6.93;;;5.97;;
24743;SDS011;12844;52.110;5.548;2022-12-17T00:12:40;7.85;;;6.43;;
24743;SDS011;12844;52.110;5.548;2022-12-17T00:15:24;7.68;;;5.95;;
24743;SDS011;12844;52.110;5.548;2022-12-17T00:18:08;7.38;;;6.22;;
24743;SDS011;12844;52.110;5.548;2022-12-17T00:21:09;7.40;;;6.25;;
24743;SDS011;12844;52.110;5.548;2022-12-17T00:23:54;7.45;;;6.10;;
24743;SDS011;12844;52.110;5.548;2022-12-17T00:26:38;7.90;;;6.35;;
24743;SDS011;12844;52.110;5.548;2022-12-17T00:29:22;8.13;;;6.45;;
24743;SDS011;12844;52.110;5.548;2022-12-17T00:32:07;7.97;;;6.72;;
24743;SDS011;12844;52.110;5.548;2022-12-17T00:34:52;7.13;;;5.93;;
24743;SDS011;12844;52.110;5.548;2022-12-17T00:37:36;7.85;;;6.50;;
24743;SDS011;12844;52.110;5.548;2022-12-17T00:40:20;8.45;;;6.60;;
24743;SDS011;12844;52.110;5.548;2022-12-17T00:43:08;7.70;;;6.28;;
24743;SDS011;12844;52.110;5.548;2022-12-17T00:45:55;7.95;;;6.53;;
24743;SDS011;12844;52.110;5.548;2022-12-17T00:48:41;10.82;;;6.88;;
24743;SDS011;12844;52.110;5.548;2022-12-17T00:51:26;8.57;;;7.03;;
24743;SDS011;12844;52.110;5.548;2022-12-17T00:54:10;9.80;;;6.53;;
24743;SDS011;12844;52.110;5.548;2022-12-17T00:56:55;8.15;;;6.60;;
24743;SDS011;12844;52.110;5.548;2022-12-17T00:59:39;8.60;;;6.70;;
24743;SDS011;12844;52.110;5.548;2022-12-17T01:02:23;8.40;;;6.90;;
24743;SDS011;12844;52.110;5.548;2022-12-17T01:05:08;9.32;;;7.05;;
24743;SDS011;12844;52.110;5.548;2022-12-17T01:07:53;8.30;;;6.50;;
24743;SDS011;12844;52.110;5.548;2022-12-17T01:10:37;9.35;;;6.72;;
24743;SDS011;12844;52.110;5.548;2022-12-17T01:13:21;9.93;;;7.18;;
24743;SDS011;12844;52.110;5.548;2022-12-17T01:16:07;8.05;;;6.55;;
24743;SDS011;12844;52.110;5.548;2022-12-17T01:18:53;9.18;;;7.22;;
24743;SDS011;12844;52.110;5.548;2022-12-17T01:21:38;8.45;;;6.78;;
24743;SDS011;12844;52.110;5.548;2022-12-17T01:24:23;8.80;;;6.85;;
24743;SDS011;12844;52.110;5.548;2022-12-17T01:27:07;8.43;;;7.00;;
24743;SDS011;12844;52.110;5.548;2022-12-17T01:29:52;8.57;;;6.97;;
24743;SDS011;12844;52.110;5.548;2022-12-17T01:32:36;8.35;;;7.03;;
24743;SDS011;12844;52.110;5.548;2022-12-17T01:35:20;8.50;;;6.82;;
24743;SDS011;12844;52.110;5.548;2022-12-17T01:38:14;9.25;;;7.45;;
24743;SDS011;12844;52.110;5.548;2022-12-17T01:41:00;10.05;;;7.20;;
24743;SDS011;12844;52.110;5.548;2022-12-17T01:43:45;9.52;;;7.53;;
24743;SDS011;12844;52.110;5.548;2022-12-17T01:46:32;10.43;;;7.70;;
24743;SDS011;12844;52.110;5.548;2022-12-17T01:49:20;9.77;;;7.45;;
24743;SDS011;12844;52.110;5.548;2022-12-17T01:52:06;9.85;;;7.43;;
24743;SDS011;12844;52.110;5.548;2022-12-17T01:54:51;9.40;;;7.20;;
24743;SDS011;12844;52.110;5.548;2022-12-17T01:57:36;9.18;;;7.28;;
24743;SDS011;12844;52.110;5.548;2022-12-17T02:00:20;9.40;;;7.38;;
24743;SDS011;12844;52.110;5.548;2022-12-17T02:03:04;10.65;;;7.35;;
24743;SDS011;12844;52.110;5.548;2022-12-17T02:05:55;9.30;;;7.13;;
24743;SDS011;12844;52.110;5.548;2022-12-17T02:12:01;8.35;;;6.63;;
24743;SDS011;12844;52.110;5.548;2022-12-17T02:14:53;8.85;;;6.63;;
24743;SDS011;12844;52.110;5.548;2022-12-17T02:17:51;9.30;;;7.25;;
24743;SDS011;12844;52.110;5.548;2022-12-17T02:20:41;8.30;;;6.40;;
24743;SDS011;12844;52.110;5.548;2022-12-17T02:29:41;8.60;;;6.60;;
24743;SDS011;12844;52.110;5.548;2022-12-17T02:32:46;9.02;;;6.82;;
24743;SDS011;12844;52.110;5.548;2022-12-17T02:35:38;7.90;;;6.45;;
24743;SDS011;12844;52.110;5.548;2022-12-17T02:38:26;9.90;;;7.22;;
24743;SDS011;12844;52.110;5.548;2022-12-17T02:41:16;7.60;;;6.32;;
24743;SDS011;12844;52.110;5.548;2022-12-17T02:44:10;8.30;;;6.85;;
24743;SDS011;12844;52.110;5.548;2022-12-17T02:46:57;7.78;;;6.82;;
24743;SDS011;12844;52.110;5.548;2022-12-17T02:49:42;7.68;;;6.40;;
24743;SDS011;12844;52.110;5.548;2022-12-17T02:52:26;8.73;;;6.95;;
24743;SDS011;12844;52.110;5.548;2022-12-17T02:55:11;8.18;;;6.65;;
24743;SDS011;12844;52.110;5.548;2022-12-17T02:57:56;8.55;;;6.60;;
24743;SDS011;12844;52.110;5.548;2022-12-17T03:00:40;8.13;;;6.40;;
24743;SDS011;12844;52.110;5.548;2022-12-17T03:03:24;8.35;;;6.55;;
24743;SDS011;12844;52.110;5.548;2022-12-17T03:06:08;8.25;;;6.68;;
24743;SDS011;12844;52.110;5.548;2022-12-17T03:08:52;9.18;;;7.45;;
24743;SDS011;12844;52.110;5.548;2022-12-17T03:11:36;9.15;;;7.22;;
24743;SDS011;12844;52.110;5.548;2022-12-17T03:14:20;8.20;;;7.07;;
24743;SDS011;12844;52.110;5.548;2022-12-17T03:17:04;8.82;;;7.28;;
24743;SDS011;12844;52.110;5.548;2022-12-17T03:19:48;8.13;;;6.63;;
24743;SDS011;12844;52.110;5.548;2022-12-17T03:22:32;8.80;;;6.68;;
24743;SDS011;12844;52.110;5.548;2022-12-17T03:25:16;9.38;;;7.43;;
24743;SDS011;12844;52.110;5.548;2022-12-17T03:28:07;8.50;;;6.85;;
24743;SDS011;12844;52.110;5.548;2022-12-17T03:30:56;9.20;;;7.15;;
24743;SDS011;12844;52.110;5.548;2022-12-17T03:33:41;8.93;;;6.93;;
24743;SDS011;12844;52.110;5.548;2022-12-17T03:36:25;8.48;;;7.18;;
24743;SDS011;12844;52.110;5.548;2022-12-17T03:39:10;8.68;;;7.57;;
24743;SDS011;12844;52.110;5.548;2022-12-17T03:41:54;9.27;;;7.53;;
24743;SDS011;12844;52.110;5.548;2022-12-17T03:44:38;8.88;;;7.50;;
24743;SDS011;12844;52.110;5.548;2022-12-17T03:47:22;9.40;;;7.32;;
24743;SDS011;12844;52.110;5.548;2022-12-17T03:50:06;8.70;;;7.03;;
24743;SDS011;12844;52.110;5.548;2022-12-17T03:52:51;9.77;;;7.97;;
24743;SDS011;12844;52.110;5.548;2022-12-17T03:55:35;9.45;;;7.88;;
24743;SDS011;12844;52.110;5.548;2022-12-17T03:58:19;9.05;;;7.55;;
24743;SDS011;12844;52.110;5.548;2022-12-17T04:01:03;9.13;;;7.75;;
24743;SDS011;12844;52.110;5.548;2022-12-17T04:03:47;8.27;;;7.38;;
24743;SDS011;12844;52.110;5.548;2022-12-17T04:06:51;9.40;;;7.55;;
24743;SDS011;12844;52.110;5.548;2022-12-17T04:09:35;9.90;;;7.85;;
24743;SDS011;12844;52.110;5.548;2022-12-17T04:12:19;9.65;;;8.07;;
24743;SDS011;12844;52.110;5.548;2022-12-17T04:15:04;9.02;;;7.72;;
24743;SDS011;12844;52.110;5.548;2022-12-17T04:17:48;10.52;;;8.43;;
24743;SDS011;12844;52.110;5.548;2022-12-17T04:20:32;10.05;;;7.97;;
24743;SDS011;12844;52.110;5.548;2022-12-17T04:23:16;9.38;;;7.78;;
24743;SDS011;12844;52.110;5.548;2022-12-17T04:26:00;9.85;;;7.82;;
24743;SDS011;12844;52.110;5.548;2022-12-17T04:28:44;9.65;;;7.90;;
24743;SDS011;12844;52.110;5.548;2022-12-17T04:31:28;10.30;;;8.30;;
24743;SDS011;12844;52.110;5.548;2022-12-17T04:34:13;8.88;;;7.20;;
24743;SDS011;12844;52.110;5.548;2022-12-17T04:36:57;10.93;;;8.55;;
24743;SDS011;12844;52.110;5.548;2022-12-17T04:39:41;9.95;;;8.40;;
24743;SDS011;12844;52.110;5.548;2022-12-17T04:42:25;10.35;;;8.20;;
24743;SDS011;12844;52.110;5.548;2022-12-17T04:45:09;9.75;;;7.60;;
24743;SDS011;12844;52.110;5.548;2022-12-17T04:48:03;9.45;;;7.95;;
24743;SDS011;12844;52.110;5.548;2022-12-17T04:50:49;8.63;;;7.30;;
24743;SDS011;12844;52.110;5.548;2022-12-17T04:53:33;8.57;;;7.38;;
24743;SDS011;12844;52.110;5.548;2022-12-17T04:56:17;9.57;;;7.53;;
24743;SDS011;12844;52.110;5.548;2022-12-17T04:59:01;9.82;;;7.85;;
24743;SDS011;12844;52.110;5.548;2022-12-17T05:01:45;8.38;;;7.43;;
24743;SDS011;12844;52.110;5.548;2022-12-17T05:04:29;9.80;;;7.72;;
24743;SDS011;12844;52.110;5.548;2022-12-17T05:07:17;9.27;;;7.70;;
24743;SDS011;12844;52.110;5.548;2022-12-17T05:10:01;9.23;;;7.55;;
24743;SDS011;12844;52.110;5.548;2022-12-17T05:12:45;8.00;;;6.90;;
24743;SDS011;12844;52.110;5.548;2022-12-17T05:15:29;8.98;;;7.85;;
24743;SDS011;12844;52.110;5.548;2022-12-17T05:18:13;8.88;;;6.90;;
24743;SDS011;12844;52.110;5.548;2022-12-17T05:20:57;8.20;;;7.03;;
24743;SDS011;12844;52.110;5.548;2022-12-17T05:23:41;9.48;;;7.85;;
24743;SDS011;12844;52.110;5.548;2022-12-17T05:26:25;8.45;;;7.13;;
24743;SDS011;12844;52.110;5.548;2022-12-17T05:29:11;8.80;;;7.03;;
24743;SDS011;12844;52.110;5.548;2022-12-17T05:31:55;9.23;;;7.45;;
24743;SDS011;12844;52.110;5.548;2022-12-17T05:34:40;8.60;;;7.20;;
24743;SDS011;12844;52.110;5.548;2022-12-17T05:37:24;8.90;;;7.30;;
24743;SDS011;12844;52.110;5.548;2022-12-17T05:40:08;9.23;;;7.60;;
24743;SDS011;12844;52.110;5.548;2022-12-17T05:42:57;9.63;;;7.45;;
24743;SDS011;12844;52.110;5.548;2022-12-17T05:45:42;9.35;;;7.47;;
24743;SDS011;12844;52.110;5.548;2022-12-17T05:48:28;9.68;;;7.68;;
24743;SDS011;12844;52.110;5.548;2022-12-17T05:51:13;8.68;;;7.15;;
24743;SDS011;12844;52.110;5.548;2022-12-17T05:53:57;9.60;;;7.40;;
24743;SDS011;12844;52.110;5.548;2022-12-17T05:56:41;9.82;;;7.78;;
24743;SDS011;12844;52.110;5.548;2022-12-17T05:59:25;9.18;;;7.43;;
24743;SDS011;12844;52.110;5.548;2022-12-17T06:02:09;9.20;;;7.63;;
24743;SDS011;12844;52.110;5.548;2022-12-17T06:04:53;8.85;;;7.30;;
24743;SDS011;12844;52.110;5.548;2022-12-17T06:07:37;9.07;;;7.50;;
24743;SDS011;12844;52.110;5.548;2022-12-17T06:10:21;10.15;;;8.02;;
24743;SDS011;12844;52.110;5.548;2022-12-17T06:13:05;9.52;;;7.97;;
24743;SDS011;12844;52.110;5.548;2022-12-17T06:15:50;10.38;;;7.65;;
24743;SDS011;12844;52.110;5.548;2022-12-17T06:18:34;10.50;;;8.50;;
24743;SDS011;12844;52.110;5.548;2022-12-17T06:21:19;9.77;;;8.02;;
24743;SDS011;12844;52.110;5.548;2022-12-17T06:24:03;10.32;;;8.27;;
24743;SDS011;12844;52.110;5.548;2022-12-17T06:26:47;10.60;;;8.75;;
24743;SDS011;12844;52.110;5.548;2022-12-17T06:29:32;10.90;;;8.65;;
24743;SDS011;12844;52.110;5.548;2022-12-17T06:32:16;10.85;;;8.50;;
24743;SDS011;12844;52.110;5.548;2022-12-17T06:34:59;10.65;;;9.32;;
24743;SDS011;12844;52.110;5.548;2022-12-17T06:37:44;10.23;;;8.50;;
24743;SDS011;12844;52.110;5.548;2022-12-17T06:40:27;9.63;;;8.20;;
24743;SDS011;12844;52.110;5.548;2022-12-17T06:43:12;11.15;;;9.10;;
24743;SDS011;12844;52.110;5.548;2022-12-17T06:45:55;11.80;;;9.25;;
24743;SDS011;12844;52.110;5.548;2022-12-17T06:48:40;10.93;;;8.93;;
24743;SDS011;12844;52.110;5.548;2022-12-17T06:51:24;11.07;;;9.15;;
24743;SDS011;12844;52.110;5.548;2022-12-17T06:54:08;12.13;;;9.00;;
24743;SDS011;12844;52.110;5.548;2022-12-17T06:56:52;11.93;;;9.43;;
24743;SDS011;12844;52.110;5.548;2022-12-17T06:59:36;11.13;;;8.85;;
24743;SDS011;12844;52.110;5.548;2022-12-17T07:02:19;12.45;;;9.88;;
24743;SDS011;12844;52.110;5.548;2022-12-17T07:05:04;12.38;;;10.38;;
24743;SDS011;12844;52.110;5.548;2022-12-17T07:07:48;11.13;;;9.32;;
24743;SDS011;12844;52.110;5.548;2022-12-17T07:10:32;11.48;;;9.57;;
24743;SDS011;12844;52.110;5.548;2022-12-17T07:13:16;11.85;;;10.02;;
24743;SDS011;12844;52.110;5.548;2022-12-17T07:16:00;11.52;;;9.13;;
24743;SDS011;12844;52.110;5.548;2022-12-17T07:18:44;11.65;;;9.30;;
24743;SDS011;12844;52.110;5.548;2022-12-17T07:21:28;13.50;;;10.07;;
24743;SDS011;12844;52.110;5.548;2022-12-17T07:24:12;12.73;;;9.48;;
24743;SDS011;12844;52.110;5.548;2022-12-17T07:27:09;11.20;;;9.15;;
24743;SDS011;12844;52.110;5.548;2022-12-17T07:29:54;12.50;;;9.80;;
24743;SDS011;12844;52.110;5.548;2022-12-17T07:32:38;12.07;;;10.07;;
24743;SDS011;12844;52.110;5.548;2022-12-17T07:35:22;11.85;;;9.02;;
24743;SDS011;12844;52.110;5.548;2022-12-17T07:38:07;11.60;;;9.32;;
24743;SDS011;12844;52.110;5.548;2022-12-17T07:40:53;10.32;;;8.57;;
24743;SDS011;12844;52.110;5.548;2022-12-17T07:43:37;10.32;;;8.85;;
24743;SDS011;12844;52.110;5.548;2022-12-17T07:46:21;10.93;;;9.13;;
24743;SDS011;12844;52.110;5.548;2022-12-17T07:49:05;12.15;;;8.88;;
24743;SDS011;12844;52.110;5.548;2022-12-17T07:51:49;10.98;;;9.52;;
24743;SDS011;12844;52.110;5.548;2022-12-17T07:54:33;11.07;;;9.10;;
24743;SDS011;12844;52.110;5.548;2022-12-17T07:57:17;10.32;;;8.52;;
24743;SDS011;12844;52.110;5.548;2022-12-17T08:00:02;11.75;;;9.63;;
24743;SDS011;12844;52.110;5.548;2022-12-17T08:02:46;10.43;;;8.60;;
24743;SDS011;12844;52.110;5.548;2022-12-17T08:05:31;9.88;;;8.23;;
24743;SDS011;12844;52.110;5.548;2022-12-17T08:08:15;10.95;;;8.77;;
24743;SDS011;12844;52.110;5.548;2022-12-17T08:10:59;11.50;;;8.75;;
24743;SDS011;12844;52.110;5.548;2022-12-17T08:13:43;11.25;;;8.75;;
24743;SDS011;12844;52.110;5.548;2022-12-17T08:16:28;10.13;;;8.45;;
24743;SDS011;12844;52.110;5.548;2022-12-17T08:19:12;10.43;;;8.50;;
24743;SDS011;12844;52.110;5.548;2022-12-17T08:22:16;9.45;;;8.05;;
24743;SDS011;12844;52.110;5.548;2022-12-17T08:25:00;10.55;;;8.55;;
24743;SDS011;12844;52.110;5.548;2022-12-17T08:27:44;11.35;;;9.45;;
24743;SDS011;12844;52.110;5.548;2022-12-17T08:30:29;10.43;;;8.75;;
24743;SDS011;12844;52.110;5.548;2022-12-17T08:33:13;11.40;;;8.93;;
24743;SDS011;12844;52.110;5.548;2022-12-17T08:35:57;10.85;;;9.40;;
24743;SDS011;12844;52.110;5.548;2022-12-17T08:38:41;11.63;;;9.07;;
24743;SDS011;12844;52.110;5.548;2022-12-17T08:41:26;11.10;;;9.52;;
24743;SDS011;12844;52.110;5.548;2022-12-17T08:44:10;11.15;;;9.13;;
24743;SDS011;12844;52.110;5.548;2022-12-17T08:46:54;10.80;;;9.30;;
24743;SDS011;12844;52.110;5.548;2022-12-17T08:49:38;11.70;;;9.23;;
24743;SDS011;12844;52.110;5.548;2022-12-17T08:52:22;11.32;;;9.35;;
24743;SDS011;12844;52.110;5.548;2022-12-17T08:55:07;11.98;;;9.75;;
24743;SDS011;12844;52.110;5.548;2022-12-17T08:57:55;11.52;;;8.77;;
24743;SDS011;12844;52.110;5.548;2022-12-17T09:00:40;11.48;;;9.07;;
24743;SDS011;12844;52.110;5.548;2022-12-17T09:03:24;12.10;;;9.75;;
24743;SDS011;12844;52.110;5.548;2022-12-17T09:06:09;11.63;;;9.77;;
24743;SDS011;12844;52.110;5.548;2022-12-17T09:08:54;12.55;;;10.13;;
24743;SDS011;12844;52.110;5.548;2022-12-17T09:11:38;13.40;;;10.63;;
24743;SDS011;12844;52.110;5.548;2022-12-17T09:14:22;13.95;;;10.43;;
24743;SDS011;12844;52.110;5.548;2022-12-17T09:17:06;11.98;;;10.13;;
24743;SDS011;12844;52.110;5.548;2022-12-17T09:19:50;15.00;;;11.65;;
24743;SDS011;12844;52.110;5.548;2022-12-17T09:22:35;13.48;;;10.65;;
24743;SDS011;12844;52.110;5.548;2022-12-17T09:25:19;13.02;;;10.40;;
24743;SDS011;12844;52.110;5.548;2022-12-17T09:28:03;13.18;;;10.45;;
24743;SDS011;12844;52.110;5.548;2022-12-17T09:30:48;12.88;;;10.80;;
24743;SDS011;12844;52.110;5.548;2022-12-17T09:33:32;13.23;;;10.73;;
24743;SDS011;12844;52.110;5.548;2022-12-17T09:36:16;14.10;;;11.50;;
24743;SDS011;12844;52.110;5.548;2022-12-17T09:39:00;13.15;;;10.95;;
24743;SDS011;12844;52.110;5.548;2022-12-17T09:44:45;13.98;;;11.13;;
24743;SDS011;12844;52.110;5.548;2022-12-17T09:50:42;14.20;;;10.82;;
24743;SDS011;12844;52.110;5.548;2022-12-17T09:56:25;14.85;;;11.73;;
24743;SDS011;12844;52.110;5.548;2022-12-17T09:59:16;13.63;;;11.15;;
24743;SDS011;12844;52.110;5.548;2022-12-17T10:02:14;14.68;;;11.00;;
24743;SDS011;12844;52.110;5.548;2022-12-17T10:05:02;14.38;;;10.68;;
24743;SDS011;12844;52.110;5.548;2022-12-17T10:07:49;13.63;;;11.27;;
24743;SDS011;12844;52.110;5.548;2022-12-17T10:10:35;14.18;;;11.18;;
24743;SDS011;12844;52.110;5.548;2022-12-17T10:13:23;13.55;;;11.25;;
24743;SDS011;12844;52.110;5.548;2022-12-17T10:19:20;13.20;;;10.90;;
24743;SDS011;12844;52.110;5.548;2022-12-17T10:22:22;14.45;;;10.75;;
24743;SDS011;12844;52.110;5.548;2022-12-17T10:25:14;13.10;;;10.27;;
24743;SDS011;12844;52.110;5.548;2022-12-17T10:28:10;15.30;;;10.90;;
24743;SDS011;12844;52.110;5.548;2022-12-17T10:30:56;13.45;;;10.52;;
24743;SDS011;12844;52.110;5.548;2022-12-17T10:33:41;12.05;;;10.13;;
24743;SDS011;12844;52.110;5.548;2022-12-17T10:36:27;13.02;;;10.48;;
24743;SDS011;12844;52.110;5.548;2022-12-17T10:39:16;13.10;;;10.57;;
24743;SDS011;12844;52.110;5.548;2022-12-17T10:42:02;11.65;;;9.70;;
24743;SDS011;12844;52.110;5.548;2022-12-17T10:45:16;13.18;;;10.40;;
24743;SDS011;12844;52.110;5.548;2022-12-17T10:48:14;13.55;;;9.82;;
24743;SDS011;12844;52.110;5.548;2022-12-17T10:54:30;13.38;;;10.73;;
24743;SDS011;12844;52.110;5.548;2022-12-17T11:00:13;13.80;;;11.10;;
24743;SDS011;12844;52.110;5.548;2022-12-17T11:06:33;15.10;;;10.40;;
24743;SDS011;12844;52.110;5.548;2022-12-17T11:12:12;14.13;;;10.68;;
24743;SDS011;12844;52.110;5.548;2022-12-17T11:15:00;14.70;;;11.23;;
24743;SDS011;12844;52.110;5.548;2022-12-17T11:17:51;15.02;;;11.38;;
24743;SDS011;12844;52.110;5.548;2022-12-17T11:24:02;14.95;;;11.25;;
24743;SDS011;12844;52.110;5.548;2022-12-17T11:26:47;14.38;;;11.10;;
24743;SDS011;12844;52.110;5.548;2022-12-17T11:29:34;13.90;;;11.02;;
24743;SDS011;12844;52.110;5.548;2022-12-17T11:35:34;15.70;;;11.45;;
24743;SDS011;12844;52.110;5.548;2022-12-17T11:41:23;16.15;;;11.55;;
24743;SDS011;12844;52.110;5.548;2022-12-17T11:47:34;13.80;;;11.02;;
24743;SDS011;12844;52.110;5.548;2022-12-17T11:50:26;15.18;;;11.15;;
24743;SDS011;12844;52.110;5.548;2022-12-17T11:53:24;15.25;;;11.88;;
24743;SDS011;12844;52.110;5.548;2022-12-17T11:56:34;16.23;;;11.25;;
24743;SDS011;12844;52.110;5.548;2022-12-17T11:59:34;16.52;;;11.80;;
24743;SDS011;12844;52.110;5.548;2022-12-17T12:02:32;15.50;;;12.10;;
24743;SDS011;12844;52.110;5.548;2022-12-17T12:08:34;14.93;;;12.10;;
24743;SDS011;12844;52.110;5.548;2022-12-17T12:15:05;15.27;;;11.82;;
24743;SDS011;12844;52.110;5.548;2022-12-17T12:31:12;14.40;;;11.45;;
24743;SDS011;12844;52.110;5.548;2022-12-17T12:34:00;15.18;;;11.38;;
24743;SDS011;12844;52.110;5.548;2022-12-17T12:36:48;15.05;;;11.20;;
24743;SDS011;12844;52.110;5.548;2022-12-17T12:40:10;15.73;;;11.80;;
24743;SDS011;12844;52.110;5.548;2022-12-17T12:42:53;14.43;;;11.20;;
24743;SDS011;12844;52.110;5.548;2022-12-17T12:45:55;13.70;;;10.85;;
24743;SDS011;12844;52.110;5.548;2022-12-17T12:48:56;12.90;;;10.57;;
24743;SDS011;12844;52.110;5.548;2022-12-17T12:51:47;14.18;;;10.43;;
24743;SDS011;12844;52.110;5.548;2022-12-17T12:54:50;13.20;;;10.18;;
24743;SDS011;12844;52.110;5.548;2022-12-17T12:57:54;12.95;;;10.35;;
24743;SDS011;12844;52.110;5.548;2022-12-17T13:03:33;13.85;;;10.23;;
24743;SDS011;12844;52.110;5.548;2022-12-17T13:14:21;13.10;;;10.88;;
24743;SDS011;12844;52.110;5.548;2022-12-17T13:16:53;13.30;;;10.32;;
24743;SDS011;12844;52.110;5.548;2022-12-17T13:21:55;13.15;;;10.13;;
24743;SDS011;12844;52.110;5.548;2022-12-17T13:24:22;13.88;;;10.35;;
24743;SDS011;12844;52.110;5.548;2022-12-17T13:26:49;13.15;;;10.00;;
24743;SDS011;12844;52.110;5.548;2022-12-17T13:34:34;13.95;;;10.82;;
24743;SDS011;12844;52.110;5.548;2022-12-17T13:37:31;13.60;;;10.68;;
24743;SDS011;12844;52.110;5.548;2022-12-17T13:42:48;14.20;;;10.30;;
24743;SDS011;12844;52.110;5.548;2022-12-17T13:45:14;13.43;;;11.02;;
24743;SDS011;12844;52.110;5.548;2022-12-17T13:47:42;13.45;;;10.70;;
24743;SDS011;12844;52.110;5.548;2022-12-17T13:50:18;13.07;;;10.60;;
24743;SDS011;12844;52.110;5.548;2022-12-17T13:52:45;13.55;;;11.13;;
24743;SDS011;12844;52.110;5.548;2022-12-17T13:55:20;14.23;;;11.15;;
24743;SDS011;12844;52.110;5.548;2022-12-17T13:57:48;13.25;;;10.98;;
24743;SDS011;12844;52.110;5.548;2022-12-17T14:00:22;13.77;;;10.68;;
24743;SDS011;12844;52.110;5.548;2022-12-17T14:02:52;13.70;;;10.93;;
24743;SDS011;12844;52.110;5.548;2022-12-17T14:05:22;12.82;;;10.48;;
24743;SDS011;12844;52.110;5.548;2022-12-17T14:07:57;14.00;;;11.30;;
24743;SDS011;12844;52.110;5.548;2022-12-17T14:10:26;14.60;;;11.45;;
24743;SDS011;12844;52.110;5.548;2022-12-17T14:13:04;14.75;;;11.77;;
24743;SDS011;12844;52.110;5.548;2022-12-17T14:15:32;13.13;;;11.02;;
24743;SDS011;12844;52.110;5.548;2022-12-17T14:17:58;14.75;;;11.48;;
24743;SDS011;12844;52.110;5.548;2022-12-17T14:20:25;14.93;;;11.75;;
24743;SDS011;12844;52.110;5.548;2022-12-17T14:22:55;15.00;;;11.85;;
24743;SDS011;12844;52.110;5.548;2022-12-17T14:25:25;15.73;;;11.85;;
24743;SDS011;12844;52.110;5.548;2022-12-17T14:28:01;15.05;;;11.82;;
24743;SDS011;12844;52.110;5.548;2022-12-17T14:32:57;15.63;;;11.75;;
24743;SDS011;12844;52.110;5.548;2022-12-17T14:37:50;16.83;;;12.30;;
24743;SDS011;12844;52.110;5.548;2022-12-17T14:40:16;15.27;;;11.85;;
24743;SDS011;12844;52.110;5.548;2022-12-17T14:42:41;15.70;;;12.35;;
24743;SDS011;12844;52.110;5.548;2022-12-17T14:47:39;15.45;;;11.73;;
24743;SDS011;12844;52.110;5.548;2022-12-17T14:58:17;16.15;;;12.65;;
24743;SDS011;12844;52.110;5.548;2022-12-17T15:00:46;15.98;;;12.55;;
24743;SDS011;12844;52.110;5.548;2022-12-17T15:03:39;16.05;;;11.98;;
24743;SDS011;12844;52.110;5.548;2022-12-17T15:06:07;14.00;;;11.32;;
24743;SDS011;12844;52.110;5.548;2022-12-17T15:08:41;13.80;;;10.57;;
24743;SDS011;12844;52.110;5.548;2022-12-17T15:11:11;14.43;;;11.05;;
24743;SDS011;12844;52.110;5.548;2022-12-17T15:13:39;13.95;;;11.18;;
24743;SDS011;12844;52.110;5.548;2022-12-17T15:16:05;14.40;;;11.23;;
24743;SDS011;12844;52.110;5.548;2022-12-17T15:18:30;13.10;;;10.43;;
24743;SDS011;12844;52.110;5.548;2022-12-17T15:20:56;13.50;;;10.63;;
24743;SDS011;12844;52.110;5.548;2022-12-17T15:23:22;15.32;;;12.00;;
24743;SDS011;12844;52.110;5.548;2022-12-17T15:25:48;12.75;;;10.55;;
24743;SDS011;12844;52.110;5.548;2022-12-17T15:28:16;14.00;;;11.00;;
24743;SDS011;12844;52.110;5.548;2022-12-17T15:30:43;13.45;;;10.90;;
24743;SDS011;12844;52.110;5.548;2022-12-17T15:33:09;13.52;;;11.25;;
24743;SDS011;12844;52.110;5.548;2022-12-17T15:35:35;13.98;;;11.32;;
24743;SDS011;12844;52.110;5.548;2022-12-17T15:38:02;13.02;;;10.73;;
24743;SDS011;12844;52.110;5.548;2022-12-17T15:40:28;13.68;;;10.93;;
24743;SDS011;12844;52.110;5.548;2022-12-17T15:42:54;13.15;;;10.75;;
24743;SDS011;12844;52.110;5.548;2022-12-17T15:45:48;13.98;;;11.07;;
24743;SDS011;12844;52.110;5.548;2022-12-17T15:48:16;13.88;;;11.13;;
24743;SDS011;12844;52.110;5.548;2022-12-17T15:50:43;13.35;;;11.07;;
24743;SDS011;12844;52.110;5.548;2022-12-17T15:53:09;14.30;;;11.63;;
24743;SDS011;12844;52.110;5.548;2022-12-17T15:55:35;12.82;;;10.68;;
24743;SDS011;12844;52.110;5.548;2022-12-17T15:58:01;16.05;;;12.45;;
24743;SDS011;12844;52.110;5.548;2022-12-17T16:00:27;15.43;;;12.25;;
24743;SDS011;12844;52.110;5.548;2022-12-17T16:02:53;14.98;;;11.85;;
24743;SDS011;12844;52.110;5.548;2022-12-17T16:05:19;14.40;;;10.98;;
24743;SDS011;12844;52.110;5.548;2022-12-17T16:07:44;14.90;;;11.80;;
24743;SDS011;12844;52.110;5.548;2022-12-17T16:10:11;13.30;;;10.60;;
24743;SDS011;12844;52.110;5.548;2022-12-17T16:12:37;16.15;;;11.95;;
24743;SDS011;12844;52.110;5.548;2022-12-17T16:15:03;15.68;;;11.73;;
24743;SDS011;12844;52.110;5.548;2022-12-17T16:17:30;13.90;;;10.80;;
24743;SDS011;12844;52.110;5.548;2022-12-17T16:19:56;16.65;;;11.45;;
24743;SDS011;12844;52.110;5.548;2022-12-17T16:22:22;18.95;;;10.95;;
24743;SDS011;12844;52.110;5.548;2022-12-17T16:24:47;13.65;;;10.60;;
24743;SDS011;12844;52.110;5.548;2022-12-17T16:27:13;15.15;;;10.15;;
24743;SDS011;12844;52.110;5.548;2022-12-17T16:29:40;18.70;;;11.55;;
24743;SDS011;12844;52.110;5.548;2022-12-17T16:32:06;16.73;;;10.52;;
24743;SDS011;12844;52.110;5.548;2022-12-17T16:34:32;18.55;;;11.07;;
24743;SDS011;12844;52.110;5.548;2022-12-17T16:36:58;16.38;;;11.32;;
24743;SDS011;12844;52.110;5.548;2022-12-17T16:39:25;17.00;;;11.15;;
24743;SDS011;12844;52.110;5.548;2022-12-17T16:41:51;15.23;;;10.20;;
24743;SDS011;12844;52.110;5.548;2022-12-17T16:44:17;18.20;;;10.85;;
24743;SDS011;12844;52.110;5.548;2022-12-17T16:46:42;15.73;;;9.85;;
24743;SDS011;12844;52.110;5.548;2022-12-17T16:49:11;14.93;;;10.60;;
24743;SDS011;12844;52.110;5.548;2022-12-17T16:51:39;14.68;;;9.68;;
24743;SDS011;12844;52.110;5.548;2022-12-17T16:54:05;14.25;;;10.30;;
24743;SDS011;12844;52.110;5.548;2022-12-17T16:56:33;17.85;;;10.00;;
24743;SDS011;12844;52.110;5.548;2022-12-17T16:59:01;14.27;;;10.18;;
24743;SDS011;12844;52.110;5.548;2022-12-17T17:01:28;14.32;;;10.73;;
24743;SDS011;12844;52.110;5.548;2022-12-17T17:03:55;15.10;;;10.50;;
24743;SDS011;12844;52.110;5.548;2022-12-17T17:06:21;13.68;;;10.35;;
24743;SDS011;12844;52.110;5.548;2022-12-17T17:08:47;14.90;;;10.48;;
24743;SDS011;12844;52.110;5.548;2022-12-17T17:11:17;12.13;;;9.93;;
24743;SDS011;12844;52.110;5.548;2022-12-17T17:16:12;14.80;;;9.82;;
24743;SDS011;12844;52.110;5.548;2022-12-17T17:18:38;14.02;;;10.52;;
24743;SDS011;12844;52.110;5.548;2022-12-17T17:21:14;15.70;;;10.40;;
24743;SDS011;12844;52.110;5.548;2022-12-17T17:23:44;15.82;;;10.25;;
24743;SDS011;12844;52.110;5.548;2022-12-17T17:26:14;16.95;;;10.30;;
24743;SDS011;12844;52.110;5.548;2022-12-17T17:28:40;15.30;;;9.93;;
24743;SDS011;12844;52.110;5.548;2022-12-17T17:31:07;14.82;;;9.57;;
24743;SDS011;12844;52.110;5.548;2022-12-17T17:33:35;14.85;;;10.43;;
24743;SDS011;12844;52.110;5.548;2022-12-17T17:36:06;14.05;;;9.60;;
24743;SDS011;12844;52.110;5.548;2022-12-17T17:38:37;11.95;;;9.02;;
24743;SDS011;12844;52.110;5.548;2022-12-17T17:41:04;12.85;;;9.63;;
24743;SDS011;12844;52.110;5.548;2022-12-17T17:43:31;13.07;;;9.65;;
24743;SDS011;12844;52.110;5.548;2022-12-17T17:46:06;14.20;;;9.32;;